Time;durP1;ratioP1;P1;durP2;ratioP2;P2;SDS_P1;SDS_P2;PMS_P1;PMS_P2;Temp;Humidity;BMP_temperature;BMP_pressure;BME280_temperature;BME280_humidity;BME280_pressure;Samples;Min_cycle;Max_cycle;Signal;HPM_P1;HPM_P2
2023/03/03 00:00:40;;;;;;;26.67;18.93;;;;;;;;;;5239013;28;20372;-73
2023/03/03 00:03:14;;;;;;;29.73;19.27;;;;;;;;;;5240230;28;20021;-73
2023/03/03 00:05:45;;;;;;;26.37;18.60;;;;;;;;;;5239393;28;20022;-73
2023/03/03 00:08:17;;;;;;;27.00;18.73;;;;;;;;;;5239662;28;20354;-74
2023/03/03 00:10:48;;;;;;;26.77;18.63;;;;;;;;;;5239818;28;20029;-73
2023/03/03 00:13:20;;;;;;;28.00;18.90;;;;;;;;;;5240197;28;20024;-73
2023/03/03 00:15:52;;;;;;;29.60;19.93;;;;;;;;;;5238967;28;20030;-73
2023/03/03 00:18:34;;;;;;;29.77;19.93;;;;;;;;;;5239722;28;20017;-73
2023/03/03 00:21:14;;;;;;;29.60;19.63;;;;;;;;;;5240264;28;20051;-73
2023/03/03 00:23:45;;;;;;;27.67;18.83;;;;;;;;;;5239430;28;20025;-74
2023/03/03 00:26:19;;;;;;;29.57;19.10;;;;;;;;;;5239857;28;20379;-73
2023/03/03 00:28:51;;;;;;;27.93;18.60;;;;;;;;;;5238998;28;20025;-74
2023/03/03 00:31:27;;;;;;;26.77;17.73;;;;;;;;;;5241154;28;20016;-73
2023/03/03 00:34:19;;;;;;;25.43;17.43;;;;;;;;;;5243686;28;20030;-74
2023/03/03 00:36:54;;;;;;;26.43;17.57;;;;;;;;;;5242550;28;20021;-74
2023/03/03 00:39:36;;;;;;;27.10;17.13;;;;;;;;;;5243010;28;20084;-74
2023/03/03 00:42:15;;;;;;;27.27;18.77;;;;;;;;;;5243690;28;20025;-74
2023/03/03 00:44:46;;;;;;;28.58;18.17;;;;;;;;;;5242886;28;20112;-74
2023/03/03 00:47:31;;;;;;;26.84;17.36;;;;;;;;;;5243475;28;20160;-74
2023/03/03 00:50:05;;;;;;;25.93;16.50;;;;;;;;;;5242238;28;20036;-72
2023/03/03 00:52:37;;;;;;;26.57;17.33;;;;;;;;;;5242865;28;20030;-73
2023/03/03 00:55:09;;;;;;;24.60;15.83;;;;;;;;;;5243361;28;20025;-73
2023/03/03 00:57:41;;;;;;;27.87;17.77;;;;;;;;;;5241950;28;20172;-73
2023/03/03 01:00:12;;;;;;;26.07;16.80;;;;;;;;;;5243326;28;20060;-73
2023/03/03 01:02:45;;;;;;;23.97;16.17;;;;;;;;;;5242829;28;20052;-73
2023/03/03 01:05:17;;;;;;;26.30;17.97;;;;;;;;;;5242224;28;20021;-73
2023/03/03 01:07:48;;;;;;;26.33;16.27;;;;;;;;;;5242549;28;20044;-73
2023/03/03 01:10:19;;;;;;;25.00;16.03;;;;;;;;;;5242693;28;20017;-72
2023/03/03 01:12:50;;;;;;;24.40;15.87;;;;;;;;;;5242114;28;20033;-74
2023/03/03 01:15:22;;;;;;;23.77;15.70;;;;;;;;;;5242694;28;20025;-74
2023/03/03 01:17:53;;;;;;;24.93;16.57;;;;;;;;;;5242023;28;20021;-73
2023/03/03 01:20:25;;;;;;;26.77;17.23;;;;;;;;;;5242122;28;20483;-73
2023/03/03 01:22:56;;;;;;;25.10;16.53;;;;;;;;;;5242957;28;20464;-74
2023/03/03 01:25:28;;;;;;;25.90;16.87;;;;;;;;;;5241449;28;20021;-73
2023/03/03 01:27:59;;;;;;;23.50;16.13;;;;;;;;;;5242689;28;20021;-74
2023/03/03 01:30:30;;;;;;;25.97;16.60;;;;;;;;;;5242295;28;20028;-74
2023/03/03 01:33:01;;;;;;;24.97;16.67;;;;;;;;;;5241877;28;20021;-74
2023/03/03 01:35:35;;;;;;;25.40;16.60;;;;;;;;;;5242213;28;20020;-72
2023/03/03 01:38:06;;;;;;;22.73;16.37;;;;;;;;;;5242522;28;20045;-73
2023/03/03 01:40:38;;;;;;;25.93;16.80;;;;;;;;;;5241057;28;20051;-73
2023/03/03 01:43:13;;;;;;;24.60;16.07;;;;;;;;;;5241584;28;20017;-73
2023/03/03 01:45:47;;;;;;;24.03;15.93;;;;;;;;;;5241045;28;20045;-74
2023/03/03 01:48:24;;;;;;;26.43;17.87;;;;;;;;;;5242453;28;20037;-74
2023/03/03 01:51:00;;;;;;;25.60;17.07;;;;;;;;;;5242273;28;20045;-74
2023/03/03 01:53:37;;;;;;;27.30;17.20;;;;;;;;;;5240991;28;20104;-74
2023/03/03 01:56:09;;;;;;;28.20;18.80;;;;;;;;;;5242106;28;20017;-73
2023/03/03 01:58:42;;;;;;;28.37;18.23;;;;;;;;;;5241622;28;20419;-74
2023/03/03 02:01:16;;;;;;;29.37;18.47;;;;;;;;;;5241251;28;20022;-75
2023/03/03 02:03:47;;;;;;;28.33;17.63;;;;;;;;;;5241411;28;20021;-74
2023/03/03 02:06:20;;;;;;;26.63;16.83;;;;;;;;;;5241754;28;20036;-73
2023/03/03 02:09:10;;;;;;;30.80;19.03;;;;;;;;;;5240930;28;20026;-73
2023/03/03 02:11:43;;;;;;;23.90;15.93;;;;;;;;;;5241308;28;20484;-73
2023/03/03 02:14:14;;;;;;;25.60;16.63;;;;;;;;;;5241201;28;20029;-73
2023/03/03 02:16:45;;;;;;;27.90;19.00;;;;;;;;;;5241056;28;20022;-73
2023/03/03 02:19:27;;;;;;;28.50;18.07;;;;;;;;;;5241801;28;20079;-74
2023/03/03 02:22:01;;;;;;;26.33;17.30;;;;;;;;;;5240850;28;20083;-74
2023/03/03 02:24:43;;;;;;;25.50;17.37;;;;;;;;;;5241058;28;20025;-73
2023/03/03 02:27:15;;;;;;;23.73;16.53;;;;;;;;;;5241220;28;20025;-73
2023/03/03 02:29:46;;;;;;;24.23;16.57;;;;;;;;;;5240174;28;20064;-73
2023/03/03 02:32:17;;;;;;;26.70;17.60;;;;;;;;;;5241514;28;20521;-73
2023/03/03 02:34:49;;;;;;;25.27;16.43;;;;;;;;;;5240081;28;20010;-74
2023/03/03 02:37:21;;;;;;;26.60;16.93;;;;;;;;;;5241049;28;20068;-74
2023/03/03 02:39:52;;;;;;;27.53;17.13;;;;;;;;;;5240886;28;20017;-73
2023/03/03 02:42:26;;;;;;;26.30;17.07;;;;;;;;;;5240497;28;20017;-73
2023/03/03 02:44:57;;;;;;;29.43;17.97;;;;;;;;;;5241177;28;20022;-73
2023/03/03 02:47:28;;;;;;;27.63;17.67;;;;;;;;;;5240524;28;20033;-73
2023/03/03 02:49:59;;;;;;;27.87;17.17;;;;;;;;;;5240160;28;20104;-73
2023/03/03 02:52:30;;;;;;;27.07;16.23;;;;;;;;;;5240539;28;20037;-73
2023/03/03 02:55:02;;;;;;;26.07;16.20;;;;;;;;;;5240850;28;20037;-74
2023/03/03 02:57:33;;;;;;;29.07;18.37;;;;;;;;;;5239633;28;20468;-74
2023/03/03 03:00:05;;;;;;;27.80;17.20;;;;;;;;;;5240856;28;20025;-73
2023/03/03 03:02:36;;;;;;;27.83;17.77;;;;;;;;;;5240355;28;20427;-73
2023/03/03 03:05:07;;;;;;;29.57;17.70;;;;;;;;;;5240244;28;20025;-73
2023/03/03 03:07:39;;;;;;;27.57;16.77;;;;;;;;;;5240294;28;20029;-73
2023/03/03 03:10:10;;;;;;;25.60;16.17;;;;;;;;;;5240094;28;20443;-73
2023/03/03 03:12:41;;;;;;;26.33;16.40;;;;;;;;;;5240103;28;20061;-72
2023/03/03 03:15:12;;;;;;;25.70;16.60;;;;;;;;;;5240777;28;20021;-73
2023/03/03 03:17:43;;;;;;;26.47;16.43;;;;;;;;;;5239706;28;20095;-73
2023/03/03 03:20:16;;;;;;;28.17;18.13;;;;;;;;;;5240748;28;20025;-73
2023/03/03 03:22:47;;;;;;;24.23;15.07;;;;;;;;;;5240160;28;20025;-72
2023/03/03 03:25:18;;;;;;;27.10;15.80;;;;;;;;;;5239827;28;20032;-74
2023/03/03 03:27:49;;;;;;;26.80;17.17;;;;;;;;;;5239939;28;20132;-74
2023/03/03 03:30:21;;;;;;;29.20;16.83;;;;;;;;;;5240558;28;20096;-74
2023/03/03 03:32:52;;;;;;;27.87;17.60;;;;;;;;;;5239493;28;20022;-74
2023/03/03 03:35:23;;;;;;;26.00;16.67;;;;;;;;;;5240108;28;20021;-74
2023/03/03 03:37:54;;;;;;;26.48;16.54;;;;;;;;;;5240229;28;20096;-73
2023/03/03 03:40:26;;;;;;;27.93;16.30;;;;;;;;;;5238958;28;20029;-74
2023/03/03 03:42:57;;;;;;;25.83;16.17;;;;;;;;;;5240653;28;20051;-74
2023/03/03 03:45:28;;;;;;;26.30;16.90;;;;;;;;;;5239041;28;20025;-74
2023/03/03 03:48:00;;;;;;;26.90;16.57;;;;;;;;;;5240179;28;20057;-73
2023/03/03 03:50:31;;;;;;;25.40;15.00;;;;;;;;;;5239608;28;20082;-73
2023/03/03 03:53:02;;;;;;;26.07;15.73;;;;;;;;;;5239813;28;20025;-73
2023/03/03 03:55:33;;;;;;;24.50;15.40;;;;;;;;;;5239836;28;20028;-72
2023/03/03 03:58:04;;;;;;;22.80;14.80;;;;;;;;;;5240377;28;20029;-73
2023/03/03 04:00:36;;;;;;;23.47;14.73;;;;;;;;;;5238915;28;20036;-74
2023/03/03 04:03:07;;;;;;;24.10;14.93;;;;;;;;;;5240211;28;20028;-74
2023/03/03 04:05:39;;;;;;;20.53;13.67;;;;;;;;;;5240177;28;20017;-74
2023/03/03 04:08:10;;;;;;;22.90;15.10;;;;;;;;;;5243382;28;20033;-73
2023/03/03 04:10:41;;;;;;;23.27;15.03;;;;;;;;;;5243690;28;20017;-74
2023/03/03 04:13:12;;;;;;;24.57;15.43;;;;;;;;;;5244117;28;20041;-73
2023/03/03 04:15:44;;;;;;;23.63;14.93;;;;;;;;;;5242566;28;20384;-73
2023/03/03 04:18:15;;;;;;;22.70;13.77;;;;;;;;;;5244151;28;20022;-74
2023/03/03 04:20:46;;;;;;;23.23;14.23;;;;;;;;;;5242811;28;20021;-73
2023/03/03 04:23:18;;;;;;;23.57;15.40;;;;;;;;;;5243866;28;20040;-73
2023/03/03 04:25:49;;;;;;;22.93;14.90;;;;;;;;;;5243423;28;20456;-73
2023/03/03 04:28:21;;;;;;;20.73;14.17;;;;;;;;;;5242659;28;20033;-73
2023/03/03 04:30:52;;;;;;;24.00;14.63;;;;;;;;;;5243597;28;20381;-73
2023/03/03 04:33:23;;;;;;;23.47;15.37;;;;;;;;;;5243457;28;20021;-73
2023/03/03 04:35:54;;;;;;;24.80;16.30;;;;;;;;;;5242605;28;20044;-73
2023/03/03 04:38:26;;;;;;;22.70;14.40;;;;;;;;;;5242942;28;20471;-74
2023/03/03 04:40:57;;;;;;;24.47;14.97;;;;;;;;;;5243742;28;20017;-74
2023/03/03 04:43:28;;;;;;;25.17;15.40;;;;;;;;;;5242352;28;20063;-74
2023/03/03 04:45:59;;;;;;;21.40;14.57;;;;;;;;;;5243613;28;20028;-73
2023/03/03 04:48:31;;;;;;;24.73;14.87;;;;;;;;;;5242094;28;20029;-74
2023/03/03 04:51:02;;;;;;;24.57;15.23;;;;;;;;;;5243151;28;20044;-74
2023/03/03 04:53:33;;;;;;;24.60;14.17;;;;;;;;;;5242941;28;20021;-73
2023/03/03 04:56:04;;;;;;;21.10;14.53;;;;;;;;;;5242745;28;20025;-75
2023/03/03 04:58:36;;;;;;;21.67;14.27;;;;;;;;;;5242747;28;20121;-74
2023/03/03 05:01:09;;;;;;;26.10;16.77;;;;;;;;;;5243378;28;20037;-74
2023/03/03 05:03:40;;;;;;;24.07;14.93;;;;;;;;;;5241787;28;20480;-74
2023/03/03 05:06:11;;;;;;;25.57;15.27;;;;;;;;;;5243128;28;20045;-74
2023/03/03 05:08:43;;;;;;;26.07;15.67;;;;;;;;;;5242844;28;20060;-74
2023/03/03 05:11:14;;;;;;;25.67;15.97;;;;;;;;;;5242215;28;20044;-74
2023/03/03 05:13:45;;;;;;;25.97;16.10;;;;;;;;;;5242267;28;20384;-74
2023/03/03 05:16:17;;;;;;;24.47;15.17;;;;;;;;;;5243201;28;20021;-74
2023/03/03 05:18:48;;;;;;;27.53;16.07;;;;;;;;;;5240167;28;20048;-74
2023/03/03 05:21:19;;;;;;;27.17;17.00;;;;;;;;;;5242240;28;20499;-74
2023/03/03 05:23:51;;;;;;;25.73;15.67;;;;;;;;;;5241677;28;20026;-74
2023/03/03 05:26:22;;;;;;;24.70;15.27;;;;;;;;;;5242092;28;20104;-74
2023/03/03 05:28:53;;;;;;;28.47;16.87;;;;;;;;;;5242285;28;20092;-74
2023/03/03 05:31:26;;;;;;;27.40;15.70;;;;;;;;;;5241327;28;20029;-75
2023/03/03 05:33:57;;;;;;;26.53;15.83;;;;;;;;;;5242605;28;20025;-74
2023/03/03 05:36:28;;;;;;;26.80;15.87;;;;;;;;;;5242128;28;20028;-74
2023/03/03 05:38:59;;;;;;;27.20;15.47;;;;;;;;;;5241591;28;20033;-75
2023/03/03 05:41:30;;;;;;;24.43;15.10;;;;;;;;;;5241948;28;20018;-74
2023/03/03 05:44:02;;;;;;;26.57;16.50;;;;;;;;;;5242589;28;20041;-74
2023/03/03 05:46:33;;;;;;;25.60;15.60;;;;;;;;;;5240881;28;20104;-74
2023/03/03 05:49:05;;;;;;;25.47;16.37;;;;;;;;;;5242350;28;20368;-74
2023/03/03 05:51:36;;;;;;;26.87;16.57;;;;;;;;;;5241619;28;20037;-74
2023/03/03 05:54:07;;;;;;;23.17;14.60;;;;;;;;;;5241464;28;20033;-74
2023/03/03 05:56:38;;;;;;;24.83;14.50;;;;;;;;;;5241797;28;20080;-74
2023/03/03 05:59:09;;;;;;;24.27;14.77;;;;;;;;;;5241531;28;20030;-74
2023/03/03 06:01:41;;;;;;;25.47;15.50;;;;;;;;;;5241428;28;20056;-74
2023/03/03 06:04:12;;;;;;;22.50;13.73;;;;;;;;;;5242130;28;20452;-75
2023/03/03 06:06:43;;;;;;;26.97;15.87;;;;;;;;;;5240639;28;20055;-74
2023/03/03 06:09:14;;;;;;;26.47;15.37;;;;;;;;;;5241951;28;20034;-74
2023/03/03 06:11:45;;;;;;;26.17;15.07;;;;;;;;;;5241199;28;20045;-75
2023/03/03 06:14:16;;;;;;;25.07;15.37;;;;;;;;;;5240726;28;20100;-73
2023/03/03 06:16:48;;;;;;;26.20;16.00;;;;;;;;;;5241043;28;20041;-73
2023/03/03 06:19:19;;;;;;;26.50;15.33;;;;;;;;;;5241489;28;20017;-73
2023/03/03 06:21:50;;;;;;;22.57;13.93;;;;;;;;;;5240171;28;20025;-73
2023/03/03 06:24:24;;;;;;;28.33;15.53;;;;;;;;;;5240867;28;20075;-73
2023/03/03 06:26:55;;;;;;;25.73;14.57;;;;;;;;;;5240357;28;20076;-73
2023/03/03 06:29:28;;;;;;;24.03;14.47;;;;;;;;;;5240566;28;20449;-73
2023/03/03 06:31:59;;;;;;;24.70;14.63;;;;;;;;;;5241293;28;20036;-74
2023/03/03 06:34:30;;;;;;;25.00;15.13;;;;;;;;;;5240171;28;20017;-74
2023/03/03 06:37:01;;;;;;;24.20;14.90;;;;;;;;;;5241037;28;20068;-73
2023/03/03 06:39:33;;;;;;;22.43;13.63;;;;;;;;;;5240746;28;20048;-73
2023/03/03 06:42:04;;;;;;;24.37;14.60;;;;;;;;;;5240484;28;20053;-73
2023/03/03 06:44:35;;;;;;;23.23;14.20;;;;;;;;;;5240676;28;20026;-74
2023/03/03 06:47:06;;;;;;;23.30;14.03;;;;;;;;;;5241106;28;20072;-73
2023/03/03 06:49:37;;;;;;;25.07;14.60;;;;;;;;;;5239837;28;20022;-74
2023/03/03 06:52:10;;;;;;;23.60;14.57;;;;;;;;;;5240685;28;20103;-73
2023/03/03 06:54:42;;;;;;;24.00;15.03;;;;;;;;;;5240321;28;20105;-73
2023/03/03 06:57:24;;;;;;;26.23;14.90;;;;;;;;;;5239953;28;20548;-73
2023/03/03 07:00:11;;;;;;;24.93;14.90;;;;;;;;;;5240925;28;20051;-73
2023/03/03 07:02:43;;;;;;;23.77;14.77;;;;;;;;;;5239806;28;20072;-73
2023/03/03 07:05:16;;;;;;;23.50;13.60;;;;;;;;;;5240824;28;20041;-73
2023/03/03 07:07:47;;;;;;;23.90;13.67;;;;;;;;;;5240126;28;20064;-74
2023/03/03 07:10:29;;;;;;;24.73;14.10;;;;;;;;;;5239748;28;20053;-73
2023/03/03 07:13:05;;;;;;;23.40;14.37;;;;;;;;;;5240444;28;20055;-74
2023/03/03 07:15:36;;;;;;;26.27;15.20;;;;;;;;;;5239902;28;20040;-74
2023/03/03 07:18:23;;;;;;;26.13;15.30;;;;;;;;;;5239717;28;20018;-75
2023/03/03 07:20:54;;;;;;;26.70;15.27;;;;;;;;;;5240173;28;20021;-74
2023/03/03 07:23:32;;;;;;;21.20;13.17;;;;;;;;;;5239254;28;20044;-74
2023/03/03 07:26:04;;;;;;;22.77;14.10;;;;;;;;;;5240721;28;20535;-75
2023/03/03 07:28:35;;;;;;;25.60;14.40;;;;;;;;;;5239830;28;20121;-73
2023/03/03 07:31:19;;;;;;;27.60;15.53;;;;;;;;;;5239481;28;20033;-74
2023/03/03 07:33:50;;;;;;;29.83;16.43;;;;;;;;;;5240387;28;20542;-74
2023/03/03 07:36:29;;;;;;;25.37;16.00;;;;;;;;;;5240160;28;20025;-75
2023/03/03 07:39:00;;;;;;;;;;;;;;;;;;5240204;28;20055;-73
2023/03/03 07:41:33;;;;;;;28.53;16.43;;;;;;;;;;5237122;28;19967;-74
2023/03/03 07:44:05;;;;;;;27.67;15.53;;;;;;;;;;5244096;28;20020;-75
2023/03/03 07:46:41;;;;;;;24.60;15.53;;;;;;;;;;5243058;28;20066;-72
2023/03/03 07:49:31;;;;;;;24.77;14.95;;;;;;;;;;5244213;28;20017;-74
2023/03/03 07:52:21;;;;;;;26.33;15.37;;;;;;;;;;5242008;28;20484;-73
2023/03/03 07:54:53;;;;;;;24.47;14.30;;;;;;;;;;5244247;28;20017;-73
2023/03/03 07:57:33;;;;;;;21.57;14.07;;;;;;;;;;5243825;28;20033;-73
2023/03/03 08:00:15;;;;;;;23.42;13.77;;;;;;;;;;5243736;28;20013;-74
2023/03/03 08:03:06;;;;;;;29.58;16.38;;;;;;;;;;5243633;28;20026;-74
2023/03/03 08:05:46;;;;;;;26.40;16.27;;;;;;;;;;5235567;28;20032;-74
2023/03/03 08:08:29;;;;;;;26.27;14.80;;;;;;;;;;5244028;28;20128;-73
2023/03/03 08:11:00;;;;;;;26.90;15.53;;;;;;;;;;5243975;28;20022;-73
2023/03/03 08:13:31;;;;;;;26.70;15.23;;;;;;;;;;5242973;28;20018;-73
2023/03/03 08:16:08;;;;;;;28.30;14.84;;;;;;;;;;5243904;28;20021;-74
2023/03/03 08:18:46;;;;;;;23.87;14.30;;;;;;;;;;5243190;28;20021;-73
2023/03/03 08:21:19;;;;;;;24.58;13.88;;;;;;;;;;5242940;28;20014;-73
2023/03/03 08:23:52;;;;;;;22.93;13.10;;;;;;;;;;5243657;28;20447;-73
2023/03/03 08:26:24;;;;;;;23.37;13.67;;;;;;;;;;5243599;28;20029;-73
2023/03/03 08:28:55;;;;;;;22.80;12.27;;;;;;;;;;5242949;28;20061;-73
2023/03/03 08:31:27;;;;;;;21.23;12.40;;;;;;;;;;5243080;28;20447;-73
2023/03/03 08:33:58;;;;;;;21.05;12.50;;;;;;;;;;5242900;28;20495;-73
2023/03/03 08:36:30;;;;;;;20.07;10.67;;;;;;;;;;5243137;28;20547;-73
2023/03/03 08:39:02;;;;;;;20.92;11.63;;;;;;;;;;5243715;28;20013;-72
2023/03/03 08:41:33;;;;;;;25.43;12.63;;;;;;;;;;5242019;28;20075;-72
2023/03/03 08:44:05;;;;;;;21.37;12.77;;;;;;;;;;5243476;28;20411;-73
2023/03/03 08:46:36;;;;;;;22.57;12.07;;;;;;;;;;5242766;28;20491;-74
2023/03/03 08:49:07;;;;;;;24.13;13.50;;;;;;;;;;5242980;28;20420;-73
2023/03/03 08:51:39;;;;;;;24.38;14.45;;;;;;;;;;5242274;28;20050;-72
2023/03/03 08:54:10;;;;;;;26.88;14.90;;;;;;;;;;5243301;28;20468;-73
2023/03/03 08:56:41;;;;;;;28.08;14.57;;;;;;;;;;5241745;28;20022;-74
2023/03/03 08:59:12;;;;;;;28.40;15.98;;;;;;;;;;5243397;28;20013;-74
2023/03/03 09:01:44;;;;;;;26.30;14.88;;;;;;;;;;5237765;28;20070;-73
2023/03/03 09:04:15;;;;;;;24.85;14.35;;;;;;;;;;5243206;28;20018;-74
2023/03/03 09:06:47;;;;;;;24.33;13.90;;;;;;;;;;5242030;28;20029;-73
2023/03/03 09:09:18;;;;;;;27.50;13.73;;;;;;;;;;5242123;28;20028;-73
2023/03/03 09:11:52;;;;;;;22.65;13.13;;;;;;;;;;5242307;28;20025;-74
2023/03/03 09:14:26;;;;;;;21.10;12.25;;;;;;;;;;5242766;28;20100;-74
2023/03/03 09:16:57;;;;;;;24.25;12.77;;;;;;;;;;5241917;28;20506;-74
2023/03/03 09:19:31;;;;;;;22.08;13.05;;;;;;;;;;5242359;28;20049;-74
2023/03/03 09:22:14;;;;;;;22.95;12.52;;;;;;;;;;5242679;28;20021;-74
2023/03/03 09:24:47;;;;;;;21.75;12.85;;;;;;;;;;5241605;28;20022;-73
2023/03/03 09:27:24;;;;;;;20.17;12.07;;;;;;;;;;5242489;28;20036;-74
2023/03/03 09:30:11;;;;;;;21.65;12.13;;;;;;;;;;5241179;28;20022;-75
2023/03/03 09:32:42;;;;;;;17.92;10.82;;;;;;;;;;5241657;28;20053;-74
2023/03/03 09:35:26;;;;;;;22.67;10.80;;;;;;;;;;5242166;28;20530;-76
2023/03/03 09:37:58;;;;;;;18.38;10.90;;;;;;;;;;5241724;28;20014;-75
2023/03/03 09:40:48;;;;;;;16.75;10.25;;;;;;;;;;5241431;28;20021;-74
2023/03/03 09:43:38;;;;;;;17.98;10.85;;;;;;;;;;5237262;28;20026;-75
2023/03/03 09:46:26;;;;;;;18.33;9.00;;;;;;;;;;5241581;28;20108;-75
2023/03/03 09:49:04;;;;;;;16.58;9.75;;;;;;;;;;5242089;28;20396;-75
2023/03/03 09:51:45;;;;;;;15.25;8.98;;;;;;;;;;5240529;28;20123;-75
2023/03/03 09:54:22;;;;;;;15.32;8.82;;;;;;;;;;5241617;28;20033;-76
2023/03/03 09:57:16;;;;;;;13.75;8.60;;;;;;;;;;5241576;28;20167;-76
2023/03/03 09:59:53;;;;;;;11.20;7.45;;;;;;;;;;5234472;28;20039;-76
2023/03/03 10:02:43;;;;;;;12.93;7.95;;;;;;;;;;5240903;28;20037;-76
2023/03/03 10:05:28;;;;;;;11.15;6.88;;;;;;;;;;5240026;28;20145;-76
2023/03/03 10:08:00;;;;;;;12.25;6.90;;;;;;;;;;5241900;28;20029;-75
2023/03/03 10:10:54;;;;;;;13.60;8.14;;;;;;;;;;5241038;28;20384;-76
2023/03/03 10:13:35;;;;;;;12.70;7.13;;;;;;;;;;5234528;28;20033;-77
2023/03/03 10:16:24;;;;;;;13.38;7.40;;;;;;;;;;5240356;28;20022;-73
2023/03/03 10:18:55;;;;;;;13.65;7.53;;;;;;;;;;5241099;28;20391;-72
2023/03/03 10:21:36;;;;;;;14.48;7.85;;;;;;;;;;5239055;28;20033;-77
2023/03/03 10:24:16;;;;;;;12.00;7.53;;;;;;;;;;5241047;28;20021;-77
2023/03/03 10:26:58;;;;;;;10.65;7.45;;;;;;;;;;5239799;28;20026;-76
2023/03/03 10:29:42;;;;;;;13.00;7.35;;;;;;;;;;5241136;28;20055;-77
2023/03/03 10:32:37;;;;;;;11.82;6.95;;;;;;;;;;5241616;28;20048;-77
2023/03/03 10:35:17;;;;;;;11.90;7.35;;;;;;;;;;5240511;28;20105;-77
2023/03/03 10:37:48;;;;;;;10.40;6.57;;;;;;;;;;5240855;28;20528;-76
2023/03/03 10:40:38;;;;;;;15.42;7.50;;;;;;;;;;5240373;28;20033;-78
2023/03/03 10:43:44;;;;;;;12.73;7.00;;;;;;;;;;5241221;28;20025;-77
2023/03/03 10:46:34;;;;;;;10.70;6.43;;;;;;;;;;5198049;28;20031;-75
2023/03/03 10:49:18;;;;;;;12.98;7.22;;;;;;;;;;5238834;28;20037;-77
2023/03/03 10:51:50;;;;;;;14.32;7.55;;;;;;;;;;5240417;28;20049;-77
2023/03/03 10:54:21;;;;;;;13.78;7.12;;;;;;;;;;5239950;28;20491;-76
2023/03/03 10:57:01;;;;;;;10.80;6.50;;;;;;;;;;5240636;28;20021;-76
2023/03/03 10:59:44;;;;;;;12.80;7.25;;;;;;;;;;5240258;28;20018;-76
2023/03/03 11:02:21;;;;;;;10.57;6.20;;;;;;;;;;5240299;28;20503;-76
2023/03/03 11:05:01;;;;;;;11.60;7.15;;;;;;;;;;5240670;28;20024;-76
2023/03/03 11:07:51;;;;;;;10.57;7.45;;;;;;;;;;5240332;28;20034;-77
2023/03/03 11:10:47;;;;;;;10.77;6.97;;;;;;;;;;5239515;28;20056;-76
2023/03/03 11:13:18;;;;;;;11.40;7.03;;;;;;;;;;5240638;28;20030;-76
2023/03/03 11:16:13;;;;;;;11.93;7.32;;;;;;;;;;5239113;28;20107;-75
2023/03/03 11:18:44;;;;;;;13.35;7.82;;;;;;;;;;5240583;28;20063;-76
2023/03/03 11:21:22;;;;;;;12.12;7.74;;;;;;;;;;5240675;28;20017;-75
2023/03/03 11:24:14;;;;;;;10.90;7.72;;;;;;;;;;5239903;28;20048;-76
2023/03/03 11:26:45;;;;;;;11.10;7.13;;;;;;;;;;5240021;28;20029;-76
2023/03/03 11:29:19;;;;;;;11.52;7.05;;;;;;;;;;5240548;28;20021;-75
2023/03/03 11:31:55;;;;;;;13.90;8.27;;;;;;;;;;5240225;28;20409;-76
2023/03/03 11:34:36;;;;;;;13.20;7.88;;;;;;;;;;5239862;28;20040;-75
2023/03/03 11:37:09;;;;;;;11.43;7.78;;;;;;;;;;5239725;28;20464;-75
2023/03/03 11:39:41;;;;;;;10.88;7.43;;;;;;;;;;5240029;28;20025;-75
2023/03/03 11:42:25;;;;;;;11.65;8.10;;;;;;;;;;5240579;28;20025;-74
2023/03/03 11:45:00;;;;;;;11.50;7.72;;;;;;;;;;5239639;28;20500;-74
2023/03/03 11:47:39;;;;;;;12.82;8.35;;;;;;;;;;5239666;28;20399;-75
2023/03/03 11:50:15;;;;;;;11.20;7.00;;;;;;;;;;5240009;28;20033;-74
2023/03/03 11:52:46;;;;;;;14.70;7.25;;;;;;;;;;5239076;28;20026;-74
2023/03/03 11:55:29;;;;;;;10.85;6.90;;;;;;;;;;5240575;28;20025;-75
2023/03/03 11:58:10;;;;;;;13.02;7.35;;;;;;;;;;5239545;28;20021;-74
2023/03/03 12:00:47;;;;;;;11.52;8.05;;;;;;;;;;5239826;28;20032;-74
2023/03/03 12:03:36;;;;;;;10.48;7.32;;;;;;;;;;5240559;28;20022;-74
2023/03/03 12:06:10;;;;;;;12.27;7.43;;;;;;;;;;5239476;28;20021;-75
2023/03/03 12:09:00;;;;;;;12.90;7.15;;;;;;;;;;5240036;28;20033;-75
2023/03/03 12:11:31;;;;;;;12.15;7.13;;;;;;;;;;5238637;28;20100;-74
2023/03/03 12:14:09;;;;;;;12.16;7.10;;;;;;;;;;5239947;28;20532;-75
2023/03/03 12:16:53;;;;;;;11.07;6.63;;;;;;;;;;5239580;28;20380;-74
2023/03/03 12:19:30;;;;;;;10.25;6.18;;;;;;;;;;5238769;28;20026;-75
2023/03/03 12:22:07;;;;;;;9.85;6.20;;;;;;;;;;5239830;28;20022;-75
2023/03/03 12:24:47;;;;;;;9.23;6.13;;;;;;;;;;5238880;28;20436;-75
2023/03/03 12:27:26;;;;;;;10.38;6.28;;;;;;;;;;5240289;28;20033;-75
2023/03/03 12:29:58;;;;;;;10.43;5.97;;;;;;;;;;5243780;28;20021;-76
2023/03/03 12:32:42;;;;;;;10.85;6.18;;;;;;;;;;5243164;28;20032;-76
2023/03/03 12:35:40;;;;;;;10.02;6.03;;;;;;;;;;5243868;28;20021;-75
2023/03/03 12:38:23;;;;;;;10.95;6.05;;;;;;;;;;5237608;28;20041;-75
2023/03/03 12:41:02;;;;;;;11.93;5.80;;;;;;;;;;5242002;28;20061;-75
2023/03/03 12:43:33;;;;;;;9.50;6.10;;;;;;;;;;5242489;28;20333;-74
2023/03/03 12:46:40;;;;;;;8.94;5.88;;;;;;;;;;5242488;28;20040;-74
2023/03/03 12:49:11;;;;;;;7.40;4.85;;;;;;;;;;5198610;28;20458;-74
2023/03/03 12:51:49;;;;;;;8.15;5.40;;;;;;;;;;5234837;28;20057;-75
2023/03/03 12:54:37;;;;;;;7.53;4.80;;;;;;;;;;5241084;28;20032;-74
2023/03/03 12:57:26;;;;;;;8.95;5.90;;;;;;;;;;5243246;28;20013;-74
2023/03/03 13:00:09;;;;;;;10.05;4.90;;;;;;;;;;5243085;28;20039;-75
2023/03/03 13:02:59;;;;;;;8.57;4.93;;;;;;;;;;5241694;28;20476;-74
2023/03/03 13:05:45;;;;;;;7.78;4.43;;;;;;;;;;5242472;28;20021;-74
2023/03/03 13:08:20;;;;;;;7.40;4.93;;;;;;;;;;5230275;28;20037;-74
2023/03/03 13:10:54;;;;;;;7.00;4.70;;;;;;;;;;5225712;28;20032;-74
2023/03/03 13:13:39;;;;;;;8.90;5.50;;;;;;;;;;5241566;28;20079;-74
2023/03/03 13:16:12;;;;;;;9.43;4.90;;;;;;;;;;5241395;28;20013;-75
2023/03/03 13:18:46;;;;;;;7.30;5.00;;;;;;;;;;5240519;28;20024;-74
2023/03/03 13:21:23;;;;;;;7.75;5.10;;;;;;;;;;5242268;28;20030;-75
2023/03/03 13:23:56;;;;;;;8.63;4.57;;;;;;;;;;5241283;28;20030;-74
2023/03/03 13:26:31;;;;;;;9.45;6.70;;;;;;;;;;5241912;28;20080;-74
2023/03/03 13:29:08;;;;;;;9.65;5.78;;;;;;;;;;5240160;28;20030;-75
2023/03/03 13:31:44;;;;;;;7.43;4.35;;;;;;;;;;5241900;28;20025;-76
2023/03/03 13:34:18;;;;;;;5.68;4.07;;;;;;;;;;5242655;28;20029;-76
2023/03/03 13:36:52;;;;;;;6.03;3.95;;;;;;;;;;5241501;28;20029;-76
2023/03/03 13:39:32;;;;;;;7.13;4.07;;;;;;;;;;5240895;28;20072;-76
2023/03/03 13:42:09;;;;;;;5.57;3.33;;;;;;;;;;5242078;28;20029;-75
2023/03/03 13:44:41;;;;;;;8.38;3.50;;;;;;;;;;5241117;28;20100;-74
2023/03/03 13:47:31;;;;;;;4.43;3.13;;;;;;;;;;5242297;28;20536;-74
2023/03/03 13:50:21;;;;;;;6.20;3.53;;;;;;;;;;5240989;28;20026;-74
2023/03/03 13:53:04;;;;;;;7.10;3.83;;;;;;;;;;5241337;28;20049;-75
2023/03/03 13:55:42;;;;;;;6.03;3.30;;;;;;;;;;5241263;28;20109;-74
2023/03/03 13:58:13;;;;;;;5.15;2.63;;;;;;;;;;5240988;28;20518;-75
2023/03/03 14:00:53;;;;;;;5.78;3.45;;;;;;;;;;5241869;28;20029;-75
2023/03/03 14:03:43;;;;;;;3.55;2.60;;;;;;;;;;5241147;28;20056;-75
2023/03/03 14:06:22;;;;;;;3.92;2.55;;;;;;;;;;5240745;28;20037;-75
2023/03/03 14:09:04;;;;;;;5.13;3.22;;;;;;;;;;5240825;28;20116;-75
2023/03/03 14:11:38;;;;;;;4.43;2.80;;;;;;;;;;5240409;28;20025;-75
2023/03/03 14:14:27;;;;;;;3.83;2.45;;;;;;;;;;5241489;28;20030;-74
2023/03/03 14:17:14;;;;;;;4.45;2.75;;;;;;;;;;5241461;28;20026;-74
2023/03/03 14:19:58;;;;;;;4.75;2.22;;;;;;;;;;5239976;28;20028;-74
2023/03/03 14:22:47;;;;;;;4.30;2.38;;;;;;;;;;5240917;28;20524;-74
2023/03/03 14:25:19;;;;;;;3.92;2.40;;;;;;;;;;5240352;28;20358;-74
2023/03/03 14:27:50;;;;;;;3.80;2.28;;;;;;;;;;5241044;28;20032;-74
2023/03/03 14:30:21;;;;;;;4.35;2.67;;;;;;;;;;5240031;28;20079;-75
2023/03/03 14:33:04;;;;;;;3.40;1.73;;;;;;;;;;5240336;28;20260;-75
2023/03/03 14:35:37;;;;;;;3.05;1.77;;;;;;;;;;5239856;28;20484;-75
2023/03/03 14:38:12;;;;;;;3.25;1.55;;;;;;;;;;5240539;28;20032;-74
2023/03/03 14:40:44;;;;;;;4.32;1.80;;;;;;;;;;5239943;28;20107;-75
2023/03/03 14:43:34;;;;;;;5.05;1.55;;;;;;;;;;5241233;28;20295;-75
2023/03/03 14:46:24;;;;;;;4.25;1.63;;;;;;;;;;5240762;28;20392;-75
2023/03/03 14:48:57;;;;;;;3.25;1.40;;;;;;;;;;5240520;28;20041;-75
2023/03/03 14:51:31;;;;;;;5.43;2.00;;;;;;;;;;5239082;28;20488;-74
2023/03/03 14:54:07;;;;;;;4.22;1.30;;;;;;;;;;5239933;28;20028;-74
2023/03/03 14:56:52;;;;;;;3.13;1.30;;;;;;;;;;5239783;28;20062;-74
2023/03/03 14:59:25;;;;;;;2.20;1.20;;;;;;;;;;5239881;28;20075;-74
2023/03/03 15:02:26;;;;;;;4.00;1.38;;;;;;;;;;5239622;28;20018;-74
2023/03/03 15:05:17;;;;;;;2.30;1.00;;;;;;;;;;5240497;28;20353;-73
2023/03/03 15:07:53;;;;;;;2.95;1.02;;;;;;;;;;5239217;28;20033;-74
2023/03/03 15:10:32;;;;;;;3.47;1.10;;;;;;;;;;5240314;28;20346;-75
2023/03/03 15:13:25;;;;;;;2.30;1.35;;;;;;;;;;5240779;28;20021;-74